sensor_id;sensor_type;location;lat;lon;timestamp;P1;durP1;ratioP1;P2;durP2;ratioP2
21521;SDS011;10922;45.572;10.002;2023-03-23T00:01:14;38.00;;;24.53;;
21521;SDS011;10922;45.572;10.002;2023-03-23T00:03:45;42.93;;;23.73;;
21521;SDS011;10922;45.572;10.002;2023-03-23T00:06:13;37.17;;;23.80;;
21521;SDS011;10922;45.572;10.002;2023-03-23T00:08:43;35.77;;;22.63;;
21521;SDS011;10922;45.572;10.002;2023-03-23T00:11:16;37.87;;;22.73;;
21521;SDS011;10922;45.572;10.002;2023-03-23T00:13:47;35.73;;;21.60;;
21521;SDS011;10922;45.572;10.002;2023-03-23T00:16:17;35.67;;;21.67;;
21521;SDS011;10922;45.572;10.002;2023-03-23T00:18:48;35.70;;;21.27;;
21521;SDS011;10922;45.572;10.002;2023-03-23T00:21:19;37.30;;;23.13;;
21521;SDS011;10922;45.572;10.002;2023-03-23T00:23:50;37.43;;;22.00;;
21521;SDS011;10922;45.572;10.002;2023-03-23T00:26:19;41.57;;;22.23;;
21521;SDS011;10922;45.572;10.002;2023-03-23T00:28:45;36.60;;;22.53;;
21521;SDS011;10922;45.572;10.002;2023-03-23T00:31:13;42.37;;;22.77;;
21521;SDS011;10922;45.572;10.002;2023-03-23T00:33:39;38.93;;;22.73;;
21521;SDS011;10922;45.572;10.002;2023-03-23T00:36:08;41.77;;;22.20;;
21521;SDS011;10922;45.572;10.002;2023-03-23T00:38:36;35.07;;;21.33;;
21521;SDS011;10922;45.572;10.002;2023-03-23T00:41:02;37.43;;;22.23;;
21521;SDS011;10922;45.572;10.002;2023-03-23T00:43:29;37.63;;;22.47;;
21521;SDS011;10922;45.572;10.002;2023-03-23T00:45:56;34.47;;;21.67;;
21521;SDS011;10922;45.572;10.002;2023-03-23T00:48:26;36.23;;;22.97;;
21521;SDS011;10922;45.572;10.002;2023-03-23T00:50:53;38.03;;;20.90;;
21521;SDS011;10922;45.572;10.002;2023-03-23T00:53:19;31.10;;;20.53;;
21521;SDS011;10922;45.572;10.002;2023-03-23T00:55:45;36.40;;;19.90;;
21521;SDS011;10922;45.572;10.002;2023-03-23T00:58:12;39.27;;;20.50;;
21521;SDS011;10922;45.572;10.002;2023-03-23T01:00:39;37.30;;;22.00;;
21521;SDS011;10922;45.572;10.002;2023-03-23T01:03:05;38.70;;;22.00;;
21521;SDS011;10922;45.572;10.002;2023-03-23T01:05:35;39.70;;;22.53;;
21521;SDS011;10922;45.572;10.002;2023-03-23T01:08:02;33.80;;;20.83;;
21521;SDS011;10922;45.572;10.002;2023-03-23T01:10:29;40.27;;;21.53;;
21521;SDS011;10922;45.572;10.002;2023-03-23T01:12:58;35.73;;;22.43;;
21521;SDS011;10922;45.572;10.002;2023-03-23T01:15:28;35.43;;;21.03;;
21521;SDS011;10922;45.572;10.002;2023-03-23T01:17:55;37.80;;;21.33;;
21521;SDS011;10922;45.572;10.002;2023-03-23T01:20:21;33.17;;;20.83;;
21521;SDS011;10922;45.572;10.002;2023-03-23T01:22:47;35.20;;;21.50;;
21521;SDS011;10922;45.572;10.002;2023-03-23T01:25:12;39.47;;;22.73;;
21521;SDS011;10922;45.572;10.002;2023-03-23T01:27:39;35.13;;;21.47;;
21521;SDS011;10922;45.572;10.002;2023-03-23T01:30:06;34.97;;;22.63;;
21521;SDS011;10922;45.572;10.002;2023-03-23T01:32:33;35.80;;;21.80;;
21521;SDS011;10922;45.572;10.002;2023-03-23T01:34:59;37.10;;;22.67;;
21521;SDS011;10922;45.572;10.002;2023-03-23T01:37:25;34.17;;;22.70;;
21521;SDS011;10922;45.572;10.002;2023-03-23T01:39:54;34.93;;;21.83;;
21521;SDS011;10922;45.572;10.002;2023-03-23T01:42:24;36.93;;;22.13;;
21521;SDS011;10922;45.572;10.002;2023-03-23T01:47:39;35.90;;;22.27;;
21521;SDS011;10922;45.572;10.002;2023-03-23T01:50:05;39.53;;;23.53;;
21521;SDS011;10922;45.572;10.002;2023-03-23T01:52:31;35.10;;;22.97;;
21521;SDS011;10922;45.572;10.002;2023-03-23T01:54:58;37.23;;;22.73;;
21521;SDS011;10922;45.572;10.002;2023-03-23T01:57:25;35.53;;;22.10;;
21521;SDS011;10922;45.572;10.002;2023-03-23T01:59:52;36.60;;;22.27;;
21521;SDS011;10922;45.572;10.002;2023-03-23T02:02:20;38.47;;;21.30;;
21521;SDS011;10922;45.572;10.002;2023-03-23T02:04:47;34.17;;;21.43;;
21521;SDS011;10922;45.572;10.002;2023-03-23T02:07:14;39.67;;;23.77;;
21521;SDS011;10922;45.572;10.002;2023-03-23T02:09:42;38.30;;;23.67;;
21521;SDS011;10922;45.572;10.002;2023-03-23T02:12:07;39.93;;;22.67;;
21521;SDS011;10922;45.572;10.002;2023-03-23T02:14:33;37.27;;;22.03;;
21521;SDS011;10922;45.572;10.002;2023-03-23T02:17:04;39.00;;;24.03;;
21521;SDS011;10922;45.572;10.002;2023-03-23T02:19:48;35.70;;;21.73;;
21521;SDS011;10922;45.572;10.002;2023-03-23T02:38:30;35.03;;;21.90;;
21521;SDS011;10922;45.572;10.002;2023-03-23T02:41:00;36.20;;;22.53;;
21521;SDS011;10922;45.572;10.002;2023-03-23T02:43:29;39.27;;;23.53;;
21521;SDS011;10922;45.572;10.002;2023-03-23T02:45:59;37.43;;;20.53;;
21521;SDS011;10922;45.572;10.002;2023-03-23T02:48:28;37.40;;;22.73;;
21521;SDS011;10922;45.572;10.002;2023-03-23T02:50:55;38.33;;;22.60;;
21521;SDS011;10922;45.572;10.002;2023-03-23T02:53:23;35.03;;;20.77;;
21521;SDS011;10922;45.572;10.002;2023-03-23T02:55:51;34.87;;;22.67;;
21521;SDS011;10922;45.572;10.002;2023-03-23T02:58:20;36.27;;;22.63;;
21521;SDS011;10922;45.572;10.002;2023-03-23T03:00:48;39.73;;;22.67;;
21521;SDS011;10922;45.572;10.002;2023-03-23T03:03:16;35.43;;;23.10;;
21521;SDS011;10922;45.572;10.002;2023-03-23T03:09:02;37.73;;;21.90;;
21521;SDS011;10922;45.572;10.002;2023-03-23T03:11:50;35.83;;;22.50;;
21521;SDS011;10922;45.572;10.002;2023-03-23T03:14:24;39.63;;;23.40;;
21521;SDS011;10922;45.572;10.002;2023-03-23T03:17:03;36.57;;;22.57;;
21521;SDS011;10922;45.572;10.002;2023-03-23T03:19:35;34.07;;;22.40;;
21521;SDS011;10922;45.572;10.002;2023-03-23T03:22:05;37.43;;;21.00;;
21521;SDS011;10922;45.572;10.002;2023-03-23T03:24:33;37.57;;;23.33;;
21521;SDS011;10922;45.572;10.002;2023-03-23T03:27:02;35.07;;;20.50;;
21521;SDS011;10922;45.572;10.002;2023-03-23T03:29:35;39.40;;;22.83;;
21521;SDS011;10922;45.572;10.002;2023-03-23T03:32:07;38.80;;;22.70;;
21521;SDS011;10922;45.572;10.002;2023-03-23T03:34:37;33.67;;;22.53;;
21521;SDS011;10922;45.572;10.002;2023-03-23T03:37:04;32.80;;;23.07;;
21521;SDS011;10922;45.572;10.002;2023-03-23T03:39:33;37.77;;;23.30;;
21521;SDS011;10922;45.572;10.002;2023-03-23T03:42:01;36.83;;;23.07;;
21521;SDS011;10922;45.572;10.002;2023-03-23T03:44:27;36.27;;;22.20;;
21521;SDS011;10922;45.572;10.002;2023-03-23T03:46:53;40.60;;;22.80;;
21521;SDS011;10922;45.572;10.002;2023-03-23T03:49:18;37.60;;;22.83;;
21521;SDS011;10922;45.572;10.002;2023-03-23T03:51:44;33.83;;;23.23;;
21521;SDS011;10922;45.572;10.002;2023-03-23T03:54:10;38.03;;;22.53;;
21521;SDS011;10922;45.572;10.002;2023-03-23T03:56:36;40.43;;;21.57;;
21521;SDS011;10922;45.572;10.002;2023-03-23T03:59:05;37.70;;;22.43;;
21521;SDS011;10922;45.572;10.002;2023-03-23T04:01:33;39.93;;;22.03;;
21521;SDS011;10922;45.572;10.002;2023-03-23T04:03:59;36.77;;;22.40;;
21521;SDS011;10922;45.572;10.002;2023-03-23T04:06:25;30.77;;;20.10;;
21521;SDS011;10922;45.572;10.002;2023-03-23T04:08:53;34.60;;;20.80;;
21521;SDS011;10922;45.572;10.002;2023-03-23T04:11:20;33.00;;;21.47;;
21521;SDS011;10922;45.572;10.002;2023-03-23T04:13:46;35.77;;;22.60;;
21521;SDS011;10922;45.572;10.002;2023-03-23T04:16:11;37.83;;;21.87;;
21521;SDS011;10922;45.572;10.002;2023-03-23T04:18:37;35.40;;;20.53;;
21521;SDS011;10922;45.572;10.002;2023-03-23T04:21:03;36.23;;;22.63;;
21521;SDS011;10922;45.572;10.002;2023-03-23T04:23:30;37.70;;;21.70;;
21521;SDS011;10922;45.572;10.002;2023-03-23T04:25:58;34.77;;;21.57;;
21521;SDS011;10922;45.572;10.002;2023-03-23T04:28:24;33.20;;;21.33;;
21521;SDS011;10922;45.572;10.002;2023-03-23T04:30:51;34.80;;;20.60;;
21521;SDS011;10922;45.572;10.002;2023-03-23T04:33:20;36.67;;;23.03;;
21521;SDS011;10922;45.572;10.002;2023-03-23T04:35:47;34.07;;;20.17;;
21521;SDS011;10922;45.572;10.002;2023-03-23T04:38:14;34.23;;;21.20;;
21521;SDS011;10922;45.572;10.002;2023-03-23T04:40:41;38.57;;;22.30;;
21521;SDS011;10922;45.572;10.002;2023-03-23T04:43:08;37.10;;;23.17;;
21521;SDS011;10922;45.572;10.002;2023-03-23T04:45:34;34.50;;;20.67;;
21521;SDS011;10922;45.572;10.002;2023-03-23T04:48:02;33.67;;;22.13;;
21521;SDS011;10922;45.572;10.002;2023-03-23T04:50:30;34.67;;;21.60;;
21521;SDS011;10922;45.572;10.002;2023-03-23T04:52:58;37.93;;;22.90;;
21521;SDS011;10922;45.572;10.002;2023-03-23T04:55:29;36.53;;;22.67;;
21521;SDS011;10922;45.572;10.002;2023-03-23T04:58:05;38.47;;;22.77;;
21521;SDS011;10922;45.572;10.002;2023-03-23T05:00:32;34.50;;;21.03;;
21521;SDS011;10922;45.572;10.002;2023-03-23T05:02:59;38.13;;;21.73;;
21521;SDS011;10922;45.572;10.002;2023-03-23T05:05:26;36.87;;;22.50;;
21521;SDS011;10922;45.572;10.002;2023-03-23T05:07:52;34.40;;;22.27;;
21521;SDS011;10922;45.572;10.002;2023-03-23T05:10:18;32.53;;;21.77;;
21521;SDS011;10922;45.572;10.002;2023-03-23T05:12:43;33.73;;;22.10;;
21521;SDS011;10922;45.572;10.002;2023-03-23T05:15:10;34.53;;;21.90;;
21521;SDS011;10922;45.572;10.002;2023-03-23T05:17:37;35.67;;;23.07;;
21521;SDS011;10922;45.572;10.002;2023-03-23T05:20:04;34.83;;;22.43;;
21521;SDS011;10922;45.572;10.002;2023-03-23T05:22:36;33.70;;;22.10;;
21521;SDS011;10922;45.572;10.002;2023-03-23T05:25:03;35.80;;;21.40;;
21521;SDS011;10922;45.572;10.002;2023-03-23T05:27:30;39.07;;;22.70;;
21521;SDS011;10922;45.572;10.002;2023-03-23T05:29:57;34.70;;;21.43;;
21521;SDS011;10922;45.572;10.002;2023-03-23T05:32:26;35.93;;;22.83;;
21521;SDS011;10922;45.572;10.002;2023-03-23T05:34:56;34.27;;;21.00;;
21521;SDS011;10922;45.572;10.002;2023-03-23T05:37:23;33.73;;;20.60;;
21521;SDS011;10922;45.572;10.002;2023-03-23T05:39:49;36.43;;;21.40;;
21521;SDS011;10922;45.572;10.002;2023-03-23T05:42:18;35.30;;;23.60;;
21521;SDS011;10922;45.572;10.002;2023-03-23T05:44:48;37.17;;;22.10;;
21521;SDS011;10922;45.572;10.002;2023-03-23T05:47:14;39.10;;;21.83;;
21521;SDS011;10922;45.572;10.002;2023-03-23T05:49:40;36.43;;;23.50;;
21521;SDS011;10922;45.572;10.002;2023-03-23T05:52:06;38.97;;;24.43;;
21521;SDS011;10922;45.572;10.002;2023-03-23T05:54:32;35.93;;;22.37;;
21521;SDS011;10922;45.572;10.002;2023-03-23T05:56:59;37.37;;;24.10;;
21521;SDS011;10922;45.572;10.002;2023-03-23T05:59:25;34.97;;;23.83;;
21521;SDS011;10922;45.572;10.002;2023-03-23T06:01:51;39.07;;;23.80;;
21521;SDS011;10922;45.572;10.002;2023-03-23T06:04:18;32.20;;;21.37;;
21521;SDS011;10922;45.572;10.002;2023-03-23T06:06:44;30.47;;;20.63;;
21521;SDS011;10922;45.572;10.002;2023-03-23T06:09:10;35.20;;;22.77;;
21521;SDS011;10922;45.572;10.002;2023-03-23T06:11:36;32.33;;;23.07;;
21521;SDS011;10922;45.572;10.002;2023-03-23T06:14:02;37.50;;;22.37;;
21521;SDS011;10922;45.572;10.002;2023-03-23T06:16:28;38.30;;;24.13;;
21521;SDS011;10922;45.572;10.002;2023-03-23T06:18:54;40.10;;;24.07;;
21521;SDS011;10922;45.572;10.002;2023-03-23T06:21:21;36.47;;;23.47;;
21521;SDS011;10922;45.572;10.002;2023-03-23T06:23:47;35.30;;;24.40;;
21521;SDS011;10922;45.572;10.002;2023-03-23T06:26:13;39.63;;;24.67;;
21521;SDS011;10922;45.572;10.002;2023-03-23T06:28:42;37.17;;;22.53;;
21521;SDS011;10922;45.572;10.002;2023-03-23T06:31:08;32.80;;;21.50;;
21521;SDS011;10922;45.572;10.002;2023-03-23T06:33:37;37.03;;;23.90;;
21521;SDS011;10922;45.572;10.002;2023-03-23T06:36:04;36.90;;;23.10;;
21521;SDS011;10922;45.572;10.002;2023-03-23T06:38:31;35.93;;;23.47;;
21521;SDS011;10922;45.572;10.002;2023-03-23T06:40:57;32.97;;;22.87;;
21521;SDS011;10922;45.572;10.002;2023-03-23T06:43:23;35.57;;;23.97;;
21521;SDS011;10922;45.572;10.002;2023-03-23T06:45:49;37.53;;;24.03;;
21521;SDS011;10922;45.572;10.002;2023-03-23T06:48:16;34.37;;;22.83;;
21521;SDS011;10922;45.572;10.002;2023-03-23T06:50:42;64.80;;;38.10;;
21521;SDS011;10922;45.572;10.002;2023-03-23T06:53:09;36.23;;;24.30;;
21521;SDS011;10922;45.572;10.002;2023-03-23T06:55:35;33.03;;;22.73;;
21521;SDS011;10922;45.572;10.002;2023-03-23T06:58:02;35.77;;;22.80;;
21521;SDS011;10922;45.572;10.002;2023-03-23T07:00:30;35.13;;;22.20;;
21521;SDS011;10922;45.572;10.002;2023-03-23T07:02:56;38.70;;;24.30;;
21521;SDS011;10922;45.572;10.002;2023-03-23T07:05:22;37.27;;;22.60;;
21521;SDS011;10922;45.572;10.002;2023-03-23T07:07:48;36.00;;;23.80;;
21521;SDS011;10922;45.572;10.002;2023-03-23T07:10:13;32.67;;;22.73;;
21521;SDS011;10922;45.572;10.002;2023-03-23T07:12:40;37.87;;;23.93;;
21521;SDS011;10922;45.572;10.002;2023-03-23T07:15:07;39.37;;;23.77;;
21521;SDS011;10922;45.572;10.002;2023-03-23T07:17:35;32.80;;;23.37;;
21521;SDS011;10922;45.572;10.002;2023-03-23T07:20:02;36.40;;;23.63;;
21521;SDS011;10922;45.572;10.002;2023-03-23T07:22:29;36.07;;;22.93;;
21521;SDS011;10922;45.572;10.002;2023-03-23T07:24:55;34.03;;;22.53;;
21521;SDS011;10922;45.572;10.002;2023-03-23T07:27:21;38.23;;;24.23;;
21521;SDS011;10922;45.572;10.002;2023-03-23T07:29:47;37.80;;;24.40;;
21521;SDS011;10922;45.572;10.002;2023-03-23T07:32:12;33.77;;;21.93;;
21521;SDS011;10922;45.572;10.002;2023-03-23T07:34:38;35.77;;;22.70;;
21521;SDS011;10922;45.572;10.002;2023-03-23T07:37:04;34.67;;;23.43;;
21521;SDS011;10922;45.572;10.002;2023-03-23T07:39:30;30.57;;;21.63;;
21521;SDS011;10922;45.572;10.002;2023-03-23T07:41:58;30.57;;;21.70;;
21521;SDS011;10922;45.572;10.002;2023-03-23T07:44:23;36.47;;;22.77;;
21521;SDS011;10922;45.572;10.002;2023-03-23T07:46:50;30.70;;;20.93;;
21521;SDS011;10922;45.572;10.002;2023-03-23T07:49:16;35.53;;;23.80;;
21521;SDS011;10922;45.572;10.002;2023-03-23T07:51:42;29.87;;;22.07;;
21521;SDS011;10922;45.572;10.002;2023-03-23T07:54:08;28.23;;;21.27;;
21521;SDS011;10922;45.572;10.002;2023-03-23T07:56:35;31.43;;;22.83;;
21521;SDS011;10922;45.572;10.002;2023-03-23T07:59:03;30.80;;;21.03;;
21521;SDS011;10922;45.572;10.002;2023-03-23T08:01:30;28.20;;;19.30;;
21521;SDS011;10922;45.572;10.002;2023-03-23T08:03:55;22.37;;;16.77;;
21521;SDS011;10922;45.572;10.002;2023-03-23T08:06:23;22.67;;;16.00;;
21521;SDS011;10922;45.572;10.002;2023-03-23T08:08:49;25.10;;;16.93;;
21521;SDS011;10922;45.572;10.002;2023-03-23T08:11:15;17.20;;;13.17;;
21521;SDS011;10922;45.572;10.002;2023-03-23T08:13:41;12.47;;;10.47;;
21521;SDS011;10922;45.572;10.002;2023-03-23T08:16:08;12.63;;;10.20;;
21521;SDS011;10922;45.572;10.002;2023-03-23T08:18:34;12.67;;;10.17;;
21521;SDS011;10922;45.572;10.002;2023-03-23T08:21:01;10.90;;;8.80;;
21521;SDS011;10922;45.572;10.002;2023-03-23T08:23:29;15.47;;;9.07;;
21521;SDS011;10922;45.572;10.002;2023-03-23T08:25:58;11.53;;;9.23;;
21521;SDS011;10922;45.572;10.002;2023-03-23T08:28:24;12.50;;;9.77;;
21521;SDS011;10922;45.572;10.002;2023-03-23T08:30:50;14.73;;;9.77;;
21521;SDS011;10922;45.572;10.002;2023-03-23T08:33:16;16.20;;;9.50;;
21521;SDS011;10922;45.572;10.002;2023-03-23T08:35:42;11.93;;;9.47;;
21521;SDS011;10922;45.572;10.002;2023-03-23T08:38:09;14.00;;;8.97;;
21521;SDS011;10922;45.572;10.002;2023-03-23T08:40:36;13.73;;;10.00;;
21521;SDS011;10922;45.572;10.002;2023-03-23T08:43:03;15.20;;;11.40;;
21521;SDS011;10922;45.572;10.002;2023-03-23T08:45:29;13.77;;;10.30;;
21521;SDS011;10922;45.572;10.002;2023-03-23T08:47:55;15.67;;;10.47;;
21521;SDS011;10922;45.572;10.002;2023-03-23T08:50:22;15.40;;;11.50;;
21521;SDS011;10922;45.572;10.002;2023-03-23T08:52:50;19.87;;;12.47;;
21521;SDS011;10922;45.572;10.002;2023-03-23T08:55:17;15.37;;;12.60;;
21521;SDS011;10922;45.572;10.002;2023-03-23T08:57:43;16.53;;;11.50;;
21521;SDS011;10922;45.572;10.002;2023-03-23T09:00:11;12.97;;;10.20;;
21521;SDS011;10922;45.572;10.002;2023-03-23T09:02:43;19.07;;;9.07;;
21521;SDS011;10922;45.572;10.002;2023-03-23T09:05:14;11.63;;;8.53;;
21521;SDS011;10922;45.572;10.002;2023-03-23T09:07:41;10.50;;;8.23;;
21521;SDS011;10922;45.572;10.002;2023-03-23T09:10:09;9.10;;;8.03;;
21521;SDS011;10922;45.572;10.002;2023-03-23T09:12:35;9.07;;;6.77;;
21521;SDS011;10922;45.572;10.002;2023-03-23T09:15:02;9.90;;;7.40;;
21521;SDS011;10922;45.572;10.002;2023-03-23T09:17:33;9.07;;;7.10;;
21521;SDS011;10922;45.572;10.002;2023-03-23T09:20:08;8.30;;;6.90;;
21521;SDS011;10922;45.572;10.002;2023-03-23T09:22:38;14.07;;;7.80;;
21521;SDS011;10922;45.572;10.002;2023-03-23T09:25:05;14.73;;;7.40;;
21521;SDS011;10922;45.572;10.002;2023-03-23T09:27:31;9.87;;;7.17;;
21521;SDS011;10922;45.572;10.002;2023-03-23T09:29:58;10.33;;;7.03;;
21521;SDS011;10922;45.572;10.002;2023-03-23T09:32:24;9.03;;;7.83;;
21521;SDS011;10922;45.572;10.002;2023-03-23T09:34:49;10.73;;;8.10;;
21521;SDS011;10922;45.572;10.002;2023-03-23T09:37:16;11.40;;;7.67;;
21521;SDS011;10922;45.572;10.002;2023-03-23T09:39:42;12.33;;;7.57;;
21521;SDS011;10922;45.572;10.002;2023-03-23T09:42:18;10.73;;;8.23;;
21521;SDS011;10922;45.572;10.002;2023-03-23T09:50:18;10.87;;;7.47;;
21521;SDS011;10922;45.572;10.002;2023-03-23T09:55:15;8.90;;;6.60;;
21521;SDS011;10922;45.572;10.002;2023-03-23T09:57:54;8.40;;;7.23;;
21521;SDS011;10922;45.572;10.002;2023-03-23T10:01:43;10.03;;;7.13;;
21521;SDS011;10922;45.572;10.002;2023-03-23T10:04:01;8.63;;;7.10;;
21521;SDS011;10922;45.572;10.002;2023-03-23T10:06:32;8.90;;;6.27;;
21521;SDS011;10922;45.572;10.002;2023-03-23T10:08:58;6.97;;;6.37;;
21521;SDS011;10922;45.572;10.002;2023-03-23T10:14:47;7.10;;;6.37;;
21521;SDS011;10922;45.572;10.002;2023-03-23T10:22:31;8.83;;;6.73;;
21521;SDS011;10922;45.572;10.002;2023-03-23T10:25:04;7.23;;;6.30;;
21521;SDS011;10922;45.572;10.002;2023-03-23T10:27:59;15.10;;;6.70;;
21521;SDS011;10922;45.572;10.002;2023-03-23T10:31:01;9.13;;;6.90;;
21521;SDS011;10922;45.572;10.002;2023-03-23T10:33:33;9.63;;;6.83;;
21521;SDS011;10922;45.572;10.002;2023-03-23T10:38:57;9.10;;;6.97;;
21521;SDS011;10922;45.572;10.002;2023-03-23T10:41:43;10.40;;;7.13;;
21521;SDS011;10922;45.572;10.002;2023-03-23T10:44:17;8.63;;;6.83;;
21521;SDS011;10922;45.572;10.002;2023-03-23T10:50:01;8.10;;;7.40;;
21521;SDS011;10922;45.572;10.002;2023-03-23T10:52:27;9.07;;;7.40;;
21521;SDS011;10922;45.572;10.002;2023-03-23T10:55:07;8.23;;;7.43;;
21521;SDS011;10922;45.572;10.002;2023-03-23T10:57:40;14.40;;;7.27;;
21521;SDS011;10922;45.572;10.002;2023-03-23T11:00:23;8.33;;;7.40;;
21521;SDS011;10922;45.572;10.002;2023-03-23T11:08:22;10.07;;;8.57;;
21521;SDS011;10922;45.572;10.002;2023-03-23T11:13:42;11.90;;;8.70;;
21521;SDS011;10922;45.572;10.002;2023-03-23T11:16:10;11.07;;;8.97;;
21521;SDS011;10922;45.572;10.002;2023-03-23T11:18:52;11.93;;;9.00;;
21521;SDS011;10922;45.572;10.002;2023-03-23T11:21:19;14.30;;;9.10;;
21521;SDS011;10922;45.572;10.002;2023-03-23T11:23:51;11.97;;;9.00;;
21521;SDS011;10922;45.572;10.002;2023-03-23T11:26:31;11.33;;;8.43;;
21521;SDS011;10922;45.572;10.002;2023-03-23T11:29:10;14.43;;;9.33;;
21521;SDS011;10922;45.572;10.002;2023-03-23T11:31:40;14.53;;;10.07;;
21521;SDS011;10922;45.572;10.002;2023-03-23T11:34:32;12.97;;;9.63;;
21521;SDS011;10922;45.572;10.002;2023-03-23T11:37:06;13.20;;;9.40;;
21521;SDS011;10922;45.572;10.002;2023-03-23T11:39:48;12.27;;;10.10;;
21521;SDS011;10922;45.572;10.002;2023-03-23T11:42:19;11.90;;;10.33;;
21521;SDS011;10922;45.572;10.002;2023-03-23T11:44:54;12.40;;;10.67;;
21521;SDS011;10922;45.572;10.002;2023-03-23T11:48:06;12.93;;;10.73;;
21521;SDS011;10922;45.572;10.002;2023-03-23T11:50:33;17.43;;;10.97;;
21521;SDS011;10922;45.572;10.002;2023-03-23T11:58:56;15.70;;;10.90;;
21521;SDS011;10922;45.572;10.002;2023-03-23T12:12:56;19.10;;;12.77;;
21521;SDS011;10922;45.572;10.002;2023-03-23T12:15:43;13.90;;;11.23;;
21521;SDS011;10922;45.572;10.002;2023-03-23T12:28:59;20.87;;;13.17;;
21521;SDS011;10922;45.572;10.002;2023-03-23T12:32:04;22.47;;;14.13;;
21521;SDS011;10922;45.572;10.002;2023-03-23T12:42:43;21.00;;;14.80;;
21521;SDS011;10922;45.572;10.002;2023-03-23T12:48:00;21.67;;;14.27;;
21521;SDS011;10922;45.572;10.002;2023-03-23T12:53:23;22.63;;;15.20;;
21521;SDS011;10922;45.572;10.002;2023-03-23T12:58:47;17.10;;;12.50;;
21521;SDS011;10922;45.572;10.002;2023-03-23T13:01:19;19.60;;;12.63;;
21521;SDS011;10922;45.572;10.002;2023-03-23T13:03:59;18.60;;;12.85;;
21521;SDS011;10922;45.572;10.002;2023-03-23T13:11:37;22.05;;;14.55;;
21521;SDS011;10922;45.572;10.002;2023-03-23T13:14:53;16.98;;;13.10;;
21521;SDS011;10922;45.572;10.002;2023-03-23T13:19:53;16.98;;;13.27;;
21521;SDS011;10922;45.572;10.002;2023-03-23T13:22:52;16.67;;;12.82;;
21521;SDS011;10922;45.572;10.002;2023-03-23T13:31:35;14.48;;;12.05;;
21521;SDS011;10922;45.572;10.002;2023-03-23T13:34:05;13.68;;;11.55;;
21521;SDS011;10922;45.572;10.002;2023-03-23T13:37:23;15.13;;;11.07;;
21521;SDS011;10922;45.572;10.002;2023-03-23T13:39:47;14.20;;;11.48;;
21521;SDS011;10922;45.572;10.002;2023-03-23T13:42:24;13.38;;;11.85;;
21521;SDS011;10922;45.572;10.002;2023-03-23T13:49:56;14.55;;;10.85;;
21521;SDS011;10922;45.572;10.002;2023-03-23T13:58:26;14.27;;;10.50;;
21521;SDS011;10922;45.572;10.002;2023-03-23T14:03:02;11.75;;;10.65;;
21521;SDS011;10922;45.572;10.002;2023-03-23T14:05:38;16.80;;;10.90;;
21521;SDS011;10922;45.572;10.002;2023-03-23T14:18:23;11.90;;;10.05;;
21521;SDS011;10922;45.572;10.002;2023-03-23T14:20:54;12.55;;;10.80;;
21521;SDS011;10922;45.572;10.002;2023-03-23T14:23:21;12.30;;;11.00;;
21521;SDS011;10922;45.572;10.002;2023-03-23T14:25:55;12.18;;;9.95;;
21521;SDS011;10922;45.572;10.002;2023-03-23T14:28:30;14.30;;;10.48;;
21521;SDS011;10922;45.572;10.002;2023-03-23T14:30:58;13.90;;;10.60;;
21521;SDS011;10922;45.572;10.002;2023-03-23T14:33:24;13.35;;;10.38;;
21521;SDS011;10922;45.572;10.002;2023-03-23T14:35:51;14.40;;;10.55;;
21521;SDS011;10922;45.572;10.002;2023-03-23T14:38:21;13.60;;;9.88;;
21521;SDS011;10922;45.572;10.002;2023-03-23T14:40:59;13.45;;;9.90;;
21521;SDS011;10922;45.572;10.002;2023-03-23T14:43:26;14.63;;;10.52;;
21521;SDS011;10922;45.572;10.002;2023-03-23T14:45:53;14.10;;;11.13;;
21521;SDS011;10922;45.572;10.002;2023-03-23T14:48:20;14.13;;;11.63;;
21521;SDS011;10922;45.572;10.002;2023-03-23T14:51:05;12.65;;;11.20;;
21521;SDS011;10922;45.572;10.002;2023-03-23T14:53:35;13.38;;;10.77;;
21521;SDS011;10922;45.572;10.002;2023-03-23T14:56:08;12.25;;;10.45;;
21521;SDS011;10922;45.572;10.002;2023-03-23T14:58:38;18.83;;;10.32;;
21521;SDS011;10922;45.572;10.002;2023-03-23T15:01:10;13.35;;;10.25;;
21521;SDS011;10922;45.572;10.002;2023-03-23T15:03:40;12.60;;;11.13;;
21521;SDS011;10922;45.572;10.002;2023-03-23T15:06:14;13.15;;;10.75;;
21521;SDS011;10922;45.572;10.002;2023-03-23T15:08:41;13.95;;;10.05;;
21521;SDS011;10922;45.572;10.002;2023-03-23T15:13:44;13.55;;;10.30;;
21521;SDS011;10922;45.572;10.002;2023-03-23T15:16:14;15.63;;;10.10;;
21521;SDS011;10922;45.572;10.002;2023-03-23T15:18:54;14.13;;;10.48;;
21521;SDS011;10922;45.572;10.002;2023-03-23T15:24:01;15.68;;;10.38;;
21521;SDS011;10922;45.572;10.002;2023-03-23T15:26:43;13.48;;;9.75;;
21521;SDS011;10922;45.572;10.002;2023-03-23T15:31:52;13.95;;;9.27;;
21521;SDS011;10922;45.572;10.002;2023-03-23T15:37:02;12.32;;;10.13;;
21521;SDS011;10922;45.572;10.002;2023-03-23T15:39:30;11.38;;;9.18;;
21521;SDS011;10922;45.572;10.002;2023-03-23T15:41:57;14.68;;;9.85;;
21521;SDS011;10922;45.572;10.002;2023-03-23T15:44:30;18.20;;;9.57;;
21521;SDS011;10922;45.572;10.002;2023-03-23T15:47:02;13.30;;;9.77;;
21521;SDS011;10922;45.572;10.002;2023-03-23T15:49:35;10.30;;;8.70;;
21521;SDS011;10922;45.572;10.002;2023-03-23T15:52:01;13.35;;;8.90;;
21521;SDS011;10922;45.572;10.002;2023-03-23T15:54:29;11.20;;;9.18;;
21521;SDS011;10922;45.572;10.002;2023-03-23T15:56:56;13.35;;;9.55;;
21521;SDS011;10922;45.572;10.002;2023-03-23T15:59:22;11.77;;;10.02;;
21521;SDS011;10922;45.572;10.002;2023-03-23T16:01:48;11.68;;;10.15;;
21521;SDS011;10922;45.572;10.002;2023-03-23T16:04:14;14.38;;;9.98;;
21521;SDS011;10922;45.572;10.002;2023-03-23T16:06:42;14.07;;;11.07;;
21521;SDS011;10922;45.572;10.002;2023-03-23T16:09:15;13.20;;;11.20;;
21521;SDS011;10922;45.572;10.002;2023-03-23T16:11:42;15.30;;;10.95;;
21521;SDS011;10922;45.572;10.002;2023-03-23T16:14:08;13.68;;;11.68;;
21521;SDS011;10922;45.572;10.002;2023-03-23T16:16:38;12.65;;;10.82;;
21521;SDS011;10922;45.572;10.002;2023-03-23T16:19:11;15.50;;;10.75;;
21521;SDS011;10922;45.572;10.002;2023-03-23T16:21:37;11.90;;;10.70;;
21521;SDS011;10922;45.572;10.002;2023-03-23T16:24:03;13.93;;;10.85;;
21521;SDS011;10922;45.572;10.002;2023-03-23T16:26:29;15.15;;;11.10;;
21521;SDS011;10922;45.572;10.002;2023-03-23T16:28:54;13.65;;;10.43;;
21521;SDS011;10922;45.572;10.002;2023-03-23T16:31:20;19.40;;;11.93;;
21521;SDS011;10922;45.572;10.002;2023-03-23T16:33:46;12.65;;;10.88;;
21521;SDS011;10922;45.572;10.002;2023-03-23T16:36:12;14.48;;;10.45;;
21521;SDS011;10922;45.572;10.002;2023-03-23T16:38:38;13.43;;;10.77;;
21521;SDS011;10922;45.572;10.002;2023-03-23T16:41:04;14.02;;;11.27;;
21521;SDS011;10922;45.572;10.002;2023-03-23T16:43:30;12.60;;;10.73;;
21521;SDS011;10922;45.572;10.002;2023-03-23T16:45:56;23.92;;;11.70;;
21521;SDS011;10922;45.572;10.002;2023-03-23T16:48:22;14.98;;;11.45;;
21521;SDS011;10922;45.572;10.002;2023-03-23T16:50:48;16.95;;;11.55;;